sensor_id;sensor_type;location;lat;lon;timestamp;P1;durP1;ratioP1;P2;durP2;ratioP2
61003;SDS011;46889;37.310;13.582;2022-10-17T00:02:08;23.50;;;16.42;;
61003;SDS011;46889;37.310;13.582;2022-10-17T00:04:35;27.63;;;17.65;;
61003;SDS011;46889;37.310;13.582;2022-10-17T00:07:01;26.92;;;17.98;;
61003;SDS011;46889;37.310;13.582;2022-10-17T00:09:28;25.45;;;16.92;;
61003;SDS011;46889;37.310;13.582;2022-10-17T00:11:54;25.40;;;16.55;;
61003;SDS011;46889;37.310;13.582;2022-10-17T00:14:20;26.05;;;16.73;;
61003;SDS011;46889;37.310;13.582;2022-10-17T00:16:46;24.92;;;14.48;;
61003;SDS011;46889;37.310;13.582;2022-10-17T00:19:12;27.57;;;17.07;;
61003;SDS011;46889;37.310;13.582;2022-10-17T00:21:38;29.13;;;17.73;;
61003;SDS011;46889;37.310;13.582;2022-10-17T00:24:04;26.67;;;17.85;;
61003;SDS011;46889;37.310;13.582;2022-10-17T00:26:30;23.63;;;16.42;;
61003;SDS011;46889;37.310;13.582;2022-10-17T00:28:57;25.83;;;16.35;;
61003;SDS011;46889;37.310;13.582;2022-10-17T00:31:24;27.73;;;17.48;;
61003;SDS011;46889;37.310;13.582;2022-10-17T00:33:50;25.70;;;16.95;;
61003;SDS011;46889;37.310;13.582;2022-10-17T00:36:18;25.40;;;16.42;;
61003;SDS011;46889;37.310;13.582;2022-10-17T00:38:48;24.95;;;17.05;;
61003;SDS011;46889;37.310;13.582;2022-10-17T00:41:17;26.55;;;17.50;;
61003;SDS011;46889;37.310;13.582;2022-10-17T00:43:52;21.88;;;15.35;;
61003;SDS011;46889;37.310;13.582;2022-10-17T00:46:23;23.80;;;15.13;;
61003;SDS011;46889;37.310;13.582;2022-10-17T00:48:51;24.25;;;16.98;;
61003;SDS011;46889;37.310;13.582;2022-10-17T00:51:20;25.63;;;16.55;;
61003;SDS011;46889;37.310;13.582;2022-10-17T00:53:50;24.17;;;15.68;;
61003;SDS011;46889;37.310;13.582;2022-10-17T00:56:17;25.77;;;16.27;;
61003;SDS011;46889;37.310;13.582;2022-10-17T00:58:45;23.02;;;15.88;;
61003;SDS011;46889;37.310;13.582;2022-10-17T01:01:11;27.98;;;16.30;;
61003;SDS011;46889;37.310;13.582;2022-10-17T01:03:37;23.88;;;16.35;;
61003;SDS011;46889;37.310;13.582;2022-10-17T01:06:03;22.13;;;15.82;;
61003;SDS011;46889;37.310;13.582;2022-10-17T01:08:31;22.77;;;15.63;;
61003;SDS011;46889;37.310;13.582;2022-10-17T01:11:04;25.35;;;17.05;;
61003;SDS011;46889;37.310;13.582;2022-10-17T01:16:38;20.83;;;14.57;;
61003;SDS011;46889;37.310;13.582;2022-10-17T01:25:05;20.25;;;14.70;;
61003;SDS011;46889;37.310;13.582;2022-10-17T01:27:55;22.17;;;15.80;;
61003;SDS011;46889;37.310;13.582;2022-10-17T01:33:13;20.23;;;14.80;;
61003;SDS011;46889;37.310;13.582;2022-10-17T01:38:22;25.67;;;15.57;;
61003;SDS011;46889;37.310;13.582;2022-10-17T01:41:00;21.83;;;14.65;;
61003;SDS011;46889;37.310;13.582;2022-10-17T01:43:48;23.58;;;15.07;;
61003;SDS011;46889;37.310;13.582;2022-10-17T01:49:13;24.10;;;15.30;;
61003;SDS011;46889;37.310;13.582;2022-10-17T01:51:44;19.35;;;14.25;;
61003;SDS011;46889;37.310;13.582;2022-10-17T01:54:20;20.95;;;14.63;;
61003;SDS011;46889;37.310;13.582;2022-10-17T01:56:52;20.13;;;15.18;;
61003;SDS011;46889;37.310;13.582;2022-10-17T01:59:23;19.92;;;13.95;;
61003;SDS011;46889;37.310;13.582;2022-10-17T02:01:54;19.45;;;14.27;;
61003;SDS011;46889;37.310;13.582;2022-10-17T02:04:22;21.70;;;15.20;;
61003;SDS011;46889;37.310;13.582;2022-10-17T02:06:49;21.85;;;14.70;;
61003;SDS011;46889;37.310;13.582;2022-10-17T02:11:44;18.70;;;14.43;;
61003;SDS011;46889;37.310;13.582;2022-10-17T02:14:50;20.10;;;12.90;;
61003;SDS011;46889;37.310;13.582;2022-10-17T02:17:18;20.73;;;14.20;;
61003;SDS011;46889;37.310;13.582;2022-10-17T02:20:05;22.40;;;14.65;;
61003;SDS011;46889;37.310;13.582;2022-10-17T02:22:56;20.80;;;14.55;;
61003;SDS011;46889;37.310;13.582;2022-10-17T02:30:57;19.73;;;12.65;;
61003;SDS011;46889;37.310;13.582;2022-10-17T02:36:38;20.95;;;14.13;;
61003;SDS011;46889;37.310;13.582;2022-10-17T02:39:09;21.33;;;14.40;;
61003;SDS011;46889;37.310;13.582;2022-10-17T02:41:37;17.65;;;13.15;;
61003;SDS011;46889;37.310;13.582;2022-10-17T02:44:04;19.00;;;13.25;;
61003;SDS011;46889;37.310;13.582;2022-10-17T02:46:32;17.65;;;13.25;;
61003;SDS011;46889;37.310;13.582;2022-10-17T02:49:02;19.15;;;13.13;;
61003;SDS011;46889;37.310;13.582;2022-10-17T02:51:41;18.95;;;13.77;;
61003;SDS011;46889;37.310;13.582;2022-10-17T02:56:53;17.55;;;13.60;;
61003;SDS011;46889;37.310;13.582;2022-10-17T02:59:24;23.02;;;14.15;;
61003;SDS011;46889;37.310;13.582;2022-10-17T03:01:53;20.25;;;14.82;;
61003;SDS011;46889;37.310;13.582;2022-10-17T03:04:20;24.65;;;15.20;;
61003;SDS011;46889;37.310;13.582;2022-10-17T03:06:46;22.92;;;15.95;;
61003;SDS011;46889;37.310;13.582;2022-10-17T03:09:14;22.35;;;14.82;;
61003;SDS011;46889;37.310;13.582;2022-10-17T03:11:40;23.67;;;15.65;;
61003;SDS011;46889;37.310;13.582;2022-10-17T03:14:06;22.08;;;14.57;;
61003;SDS011;46889;37.310;13.582;2022-10-17T03:16:32;18.83;;;14.27;;
61003;SDS011;46889;37.310;13.582;2022-10-17T03:18:59;20.00;;;13.65;;
61003;SDS011;46889;37.310;13.582;2022-10-17T03:21:24;19.35;;;12.90;;
61003;SDS011;46889;37.310;13.582;2022-10-17T03:23:52;18.48;;;14.02;;
61003;SDS011;46889;37.310;13.582;2022-10-17T03:26:18;19.67;;;13.43;;
61003;SDS011;46889;37.310;13.582;2022-10-17T03:28:45;20.10;;;13.73;;
61003;SDS011;46889;37.310;13.582;2022-10-17T03:31:15;19.02;;;13.43;;
61003;SDS011;46889;37.310;13.582;2022-10-17T03:33:41;19.02;;;13.60;;
61003;SDS011;46889;37.310;13.582;2022-10-17T03:36:09;22.40;;;13.05;;
61003;SDS011;46889;37.310;13.582;2022-10-17T03:38:40;19.77;;;13.18;;
61003;SDS011;46889;37.310;13.582;2022-10-17T03:41:07;19.77;;;13.63;;
61003;SDS011;46889;37.310;13.582;2022-10-17T03:45:59;17.70;;;13.20;;
61003;SDS011;46889;37.310;13.582;2022-10-17T03:48:26;17.85;;;13.25;;
61003;SDS011;46889;37.310;13.582;2022-10-17T03:50:57;20.92;;;14.38;;
61003;SDS011;46889;37.310;13.582;2022-10-17T03:53:26;18.00;;;13.23;;
61003;SDS011;46889;37.310;13.582;2022-10-17T03:55:52;18.67;;;13.70;;
61003;SDS011;46889;37.310;13.582;2022-10-17T03:58:19;20.25;;;14.02;;
61003;SDS011;46889;37.310;13.582;2022-10-17T04:00:45;17.48;;;13.90;;
61003;SDS011;46889;37.310;13.582;2022-10-17T04:03:12;19.10;;;14.27;;
61003;SDS011;46889;37.310;13.582;2022-10-17T04:05:38;22.65;;;15.05;;
61003;SDS011;46889;37.310;13.582;2022-10-17T04:08:04;23.95;;;14.60;;
61003;SDS011;46889;37.310;13.582;2022-10-17T04:10:30;20.50;;;14.77;;
61003;SDS011;46889;37.310;13.582;2022-10-17T04:12:56;19.70;;;14.18;;
61003;SDS011;46889;37.310;13.582;2022-10-17T04:15:22;21.50;;;15.18;;
61003;SDS011;46889;37.310;13.582;2022-10-17T04:17:48;23.02;;;14.88;;
61003;SDS011;46889;37.310;13.582;2022-10-17T04:20:15;24.63;;;13.98;;
61003;SDS011;46889;37.310;13.582;2022-10-17T04:27:34;19.88;;;12.88;;
61003;SDS011;46889;37.310;13.582;2022-10-17T04:30:00;20.42;;;13.48;;
61003;SDS011;46889;37.310;13.582;2022-10-17T04:32:27;17.60;;;12.70;;
61003;SDS011;46889;37.310;13.582;2022-10-17T04:34:53;21.40;;;13.40;;
61003;SDS011;46889;37.310;13.582;2022-10-17T04:37:19;21.45;;;12.63;;
61003;SDS011;46889;37.310;13.582;2022-10-17T04:39:45;16.92;;;12.10;;
61003;SDS011;46889;37.310;13.582;2022-10-17T04:42:11;18.40;;;12.65;;
61003;SDS011;46889;37.310;13.582;2022-10-17T04:44:37;21.17;;;13.47;;
61003;SDS011;46889;37.310;13.582;2022-10-17T04:47:03;20.48;;;11.95;;
61003;SDS011;46889;37.310;13.582;2022-10-17T04:49:32;16.73;;;11.73;;
61003;SDS011;46889;37.310;13.582;2022-10-17T04:51:58;17.92;;;12.23;;
61003;SDS011;46889;37.310;13.582;2022-10-17T04:54:24;16.73;;;12.05;;
61003;SDS011;46889;37.310;13.582;2022-10-17T04:56:50;18.42;;;12.32;;
61003;SDS011;46889;37.310;13.582;2022-10-17T04:59:17;19.02;;;12.40;;
61003;SDS011;46889;37.310;13.582;2022-10-17T05:01:43;18.30;;;11.85;;
61003;SDS011;46889;37.310;13.582;2022-10-17T05:04:09;17.73;;;12.00;;
61003;SDS011;46889;37.310;13.582;2022-10-17T05:06:35;19.25;;;12.27;;
61003;SDS011;46889;37.310;13.582;2022-10-17T05:09:02;25.80;;;12.38;;
61003;SDS011;46889;37.310;13.582;2022-10-17T05:11:28;17.33;;;11.80;;
61003;SDS011;46889;37.310;13.582;2022-10-17T05:13:55;17.13;;;11.70;;
61003;SDS011;46889;37.310;13.582;2022-10-17T05:16:24;19.13;;;12.25;;
61003;SDS011;46889;37.310;13.582;2022-10-17T05:18:53;15.82;;;11.48;;
61003;SDS011;46889;37.310;13.582;2022-10-17T05:21:21;19.08;;;12.15;;
61003;SDS011;46889;37.310;13.582;2022-10-17T05:23:50;20.73;;;12.57;;
61003;SDS011;46889;37.310;13.582;2022-10-17T05:26:17;18.65;;;12.07;;
61003;SDS011;46889;37.310;13.582;2022-10-17T05:31:09;15.82;;;10.68;;
61003;SDS011;46889;37.310;13.582;2022-10-17T05:33:37;17.55;;;11.27;;
61003;SDS011;46889;37.310;13.582;2022-10-17T05:36:04;15.52;;;11.13;;
61003;SDS011;46889;37.310;13.582;2022-10-17T05:38:31;15.05;;;9.80;;
61003;SDS011;46889;37.310;13.582;2022-10-17T05:40:57;15.15;;;10.73;;
61003;SDS011;46889;37.310;13.582;2022-10-17T05:43:24;19.35;;;12.07;;
61003;SDS011;46889;37.310;13.582;2022-10-17T05:45:50;18.13;;;11.23;;
61003;SDS011;46889;37.310;13.582;2022-10-17T05:48:16;17.73;;;10.63;;
61003;SDS011;46889;37.310;13.582;2022-10-17T05:50:42;15.20;;;10.77;;
61003;SDS011;46889;37.310;13.582;2022-10-17T05:53:08;16.95;;;10.63;;
61003;SDS011;46889;37.310;13.582;2022-10-17T05:55:35;15.95;;;10.48;;
61003;SDS011;46889;37.310;13.582;2022-10-17T05:58:01;14.10;;;8.68;;
61003;SDS011;46889;37.310;13.582;2022-10-17T06:00:30;14.90;;;9.93;;
61003;SDS011;46889;37.310;13.582;2022-10-17T06:02:58;16.48;;;9.73;;
61003;SDS011;46889;37.310;13.582;2022-10-17T06:05:25;15.63;;;10.43;;
61003;SDS011;46889;37.310;13.582;2022-10-17T06:07:52;15.98;;;9.70;;
61003;SDS011;46889;37.310;13.582;2022-10-17T06:10:18;20.77;;;9.15;;
61003;SDS011;46889;37.310;13.582;2022-10-17T06:12:44;18.27;;;9.18;;
61003;SDS011;46889;37.310;13.582;2022-10-17T06:15:11;12.02;;;8.35;;
61003;SDS011;46889;37.310;13.582;2022-10-17T06:17:37;10.77;;;7.65;;
61003;SDS011;46889;37.310;13.582;2022-10-17T06:20:04;13.65;;;7.70;;
61003;SDS011;46889;37.310;13.582;2022-10-17T06:22:30;13.90;;;6.82;;
61003;SDS011;46889;37.310;13.582;2022-10-17T06:24:56;10.25;;;6.63;;
61003;SDS011;46889;37.310;13.582;2022-10-17T06:30:10;8.48;;;6.43;;
61003;SDS011;46889;37.310;13.582;2022-10-17T06:32:36;10.10;;;6.32;;
61003;SDS011;46889;37.310;13.582;2022-10-17T06:35:04;8.90;;;6.30;;
61003;SDS011;46889;37.310;13.582;2022-10-17T06:37:34;9.35;;;5.97;;
61003;SDS011;46889;37.310;13.582;2022-10-17T06:40:02;9.00;;;5.78;;
61003;SDS011;46889;37.310;13.582;2022-10-17T06:42:36;7.45;;;5.70;;
61003;SDS011;46889;37.310;13.582;2022-10-17T06:45:03;7.38;;;5.80;;
61003;SDS011;46889;37.310;13.582;2022-10-17T06:47:30;7.88;;;5.78;;
61003;SDS011;46889;37.310;13.582;2022-10-17T06:50:14;8.35;;;5.20;;
61003;SDS011;46889;37.310;13.582;2022-10-17T06:52:49;8.38;;;5.32;;
61003;SDS011;46889;37.310;13.582;2022-10-17T06:55:17;8.70;;;5.53;;
61003;SDS011;46889;37.310;13.582;2022-10-17T06:57:46;7.32;;;5.47;;
61003;SDS011;46889;37.310;13.582;2022-10-17T07:00:12;8.30;;;5.43;;
61003;SDS011;46889;37.310;13.582;2022-10-17T07:02:44;9.30;;;5.43;;
61003;SDS011;46889;37.310;13.582;2022-10-17T07:05:10;8.30;;;5.72;;
61003;SDS011;46889;37.310;13.582;2022-10-17T07:07:36;8.70;;;5.90;;
61003;SDS011;46889;37.310;13.582;2022-10-17T07:10:02;8.45;;;5.80;;
61003;SDS011;46889;37.310;13.582;2022-10-17T07:12:33;10.07;;;5.68;;
61003;SDS011;46889;37.310;13.582;2022-10-17T07:14:59;10.63;;;5.32;;
61003;SDS011;46889;37.310;13.582;2022-10-17T07:17:25;7.18;;;5.28;;
61003;SDS011;46889;37.310;13.582;2022-10-17T07:19:51;8.73;;;5.20;;
61003;SDS011;46889;37.310;13.582;2022-10-17T07:22:31;9.27;;;5.38;;
61003;SDS011;46889;37.310;13.582;2022-10-17T07:24:57;9.32;;;5.28;;
61003;SDS011;46889;37.310;13.582;2022-10-17T07:27:23;9.18;;;4.97;;
61003;SDS011;46889;37.310;13.582;2022-10-17T07:29:49;10.52;;;5.10;;
61003;SDS011;46889;37.310;13.582;2022-10-17T07:32:31;9.10;;;5.60;;
61003;SDS011;46889;37.310;13.582;2022-10-17T07:34:58;9.05;;;5.53;;
61003;SDS011;46889;37.310;13.582;2022-10-17T07:37:24;8.25;;;5.65;;
61003;SDS011;46889;37.310;13.582;2022-10-17T07:39:50;8.43;;;5.88;;
61003;SDS011;46889;37.310;13.582;2022-10-17T07:42:16;8.68;;;5.70;;
61003;SDS011;46889;37.310;13.582;2022-10-17T07:44:46;11.93;;;5.25;;
61003;SDS011;46889;37.310;13.582;2022-10-17T07:47:12;11.18;;;6.35;;
61003;SDS011;46889;37.310;13.582;2022-10-17T07:49:39;9.40;;;5.68;;
61003;SDS011;46889;37.310;13.582;2022-10-17T07:52:11;11.32;;;6.00;;
61003;SDS011;46889;37.310;13.582;2022-10-17T07:54:38;8.43;;;5.15;;
61003;SDS011;46889;37.310;13.582;2022-10-17T07:57:04;9.45;;;5.00;;
61003;SDS011;46889;37.310;13.582;2022-10-17T07:59:43;7.93;;;4.88;;
61003;SDS011;46889;37.310;13.582;2022-10-17T08:02:13;9.27;;;5.15;;
61003;SDS011;46889;37.310;13.582;2022-10-17T08:04:46;10.90;;;5.63;;
61003;SDS011;46889;37.310;13.582;2022-10-17T08:07:12;8.65;;;5.72;;
61003;SDS011;46889;37.310;13.582;2022-10-17T08:09:40;10.05;;;5.70;;
61003;SDS011;46889;37.310;13.582;2022-10-17T08:12:06;7.63;;;5.22;;
61003;SDS011;46889;37.310;13.582;2022-10-17T08:14:33;7.95;;;5.45;;
61003;SDS011;46889;37.310;13.582;2022-10-17T08:16:59;9.15;;;5.68;;
61003;SDS011;46889;37.310;13.582;2022-10-17T08:19:25;8.40;;;4.70;;
61003;SDS011;46889;37.310;13.582;2022-10-17T08:21:52;7.20;;;4.88;;
61003;SDS011;46889;37.310;13.582;2022-10-17T08:24:19;13.40;;;4.75;;
61003;SDS011;46889;37.310;13.582;2022-10-17T08:26:45;8.52;;;4.40;;
61003;SDS011;46889;37.310;13.582;2022-10-17T08:29:12;10.15;;;5.00;;
61003;SDS011;46889;37.310;13.582;2022-10-17T08:31:40;9.13;;;4.90;;
61003;SDS011;46889;37.310;13.582;2022-10-17T08:34:07;12.32;;;4.68;;
61003;SDS011;46889;37.310;13.582;2022-10-17T08:36:33;9.18;;;4.57;;
61003;SDS011;46889;37.310;13.582;2022-10-17T08:38:59;6.18;;;4.28;;
61003;SDS011;46889;37.310;13.582;2022-10-17T08:44:37;7.05;;;4.18;;
61003;SDS011;46889;37.310;13.582;2022-10-17T08:47:34;8.85;;;4.60;;
61003;SDS011;46889;37.310;13.582;2022-10-17T08:50:23;6.35;;;3.70;;
61003;SDS011;46889;37.310;13.582;2022-10-17T08:55:39;7.85;;;3.55;;
61003;SDS011;46889;37.310;13.582;2022-10-17T08:58:16;10.07;;;4.70;;
61003;SDS011;46889;37.310;13.582;2022-10-17T09:06:36;8.73;;;5.32;;
61003;SDS011;46889;37.310;13.582;2022-10-17T09:14:58;26.42;;;10.13;;
61003;SDS011;46889;37.310;13.582;2022-10-17T09:20:33;27.92;;;10.90;;
61003;SDS011;46889;37.310;13.582;2022-10-17T09:23:21;15.10;;;7.72;;
61003;SDS011;46889;37.310;13.582;2022-10-17T09:25:52;22.40;;;9.95;;
61003;SDS011;46889;37.310;13.582;2022-10-17T09:31:05;10.20;;;6.90;;
61003;SDS011;46889;37.310;13.582;2022-10-17T09:33:40;15.55;;;7.55;;
61003;SDS011;46889;37.310;13.582;2022-10-17T09:36:13;14.10;;;7.15;;
61003;SDS011;46889;37.310;13.582;2022-10-17T09:38:43;10.95;;;6.70;;
61003;SDS011;46889;37.310;13.582;2022-10-17T09:41:16;9.55;;;6.75;;
61003;SDS011;46889;37.310;13.582;2022-10-17T09:43:44;11.90;;;6.47;;
61003;SDS011;46889;37.310;13.582;2022-10-17T09:46:14;14.70;;;7.38;;
61003;SDS011;46889;37.310;13.582;2022-10-17T09:49:11;26.83;;;18.50;;
61003;SDS011;46889;37.310;13.582;2022-10-17T09:51:51;10.65;;;6.60;;
61003;SDS011;46889;37.310;13.582;2022-10-17T09:54:24;11.45;;;7.85;;
61003;SDS011;46889;37.310;13.582;2022-10-17T09:57:04;13.68;;;9.52;;
61003;SDS011;46889;37.310;13.582;2022-10-17T09:59:40;12.27;;;8.02;;
61003;SDS011;46889;37.310;13.582;2022-10-17T10:07:41;11.80;;;7.68;;
61003;SDS011;46889;37.310;13.582;2022-10-17T10:10:24;8.60;;;6.45;;
61003;SDS011;46889;37.310;13.582;2022-10-17T10:13:09;8.80;;;5.90;;
61003;SDS011;46889;37.310;13.582;2022-10-17T10:15:43;12.10;;;6.05;;
61003;SDS011;46889;37.310;13.582;2022-10-17T10:18:25;9.80;;;6.18;;
61003;SDS011;46889;37.310;13.582;2022-10-17T10:23:33;11.13;;;6.65;;
61003;SDS011;46889;37.310;13.582;2022-10-17T10:26:26;10.93;;;5.65;;
61003;SDS011;46889;37.310;13.582;2022-10-17T10:28:53;11.20;;;6.53;;
61003;SDS011;46889;37.310;13.582;2022-10-17T10:31:28;10.23;;;5.97;;
61003;SDS011;46889;37.310;13.582;2022-10-17T10:33:57;11.57;;;5.95;;
61003;SDS011;46889;37.310;13.582;2022-10-17T10:36:40;8.45;;;5.35;;
61003;SDS011;46889;37.310;13.582;2022-10-17T10:42:02;8.70;;;4.78;;
61003;SDS011;46889;37.310;13.582;2022-10-17T10:44:32;11.80;;;6.85;;
61003;SDS011;46889;37.310;13.582;2022-10-17T10:47:08;10.10;;;5.82;;
61003;SDS011;46889;37.310;13.582;2022-10-17T10:49:39;9.07;;;5.65;;
61003;SDS011;46889;37.310;13.582;2022-10-17T10:52:06;8.70;;;5.20;;
61003;SDS011;46889;37.310;13.582;2022-10-17T10:54:41;8.98;;;5.13;;
61003;SDS011;46889;37.310;13.582;2022-10-17T10:57:18;8.85;;;5.72;;
61003;SDS011;46889;37.310;13.582;2022-10-17T10:59:55;11.63;;;6.18;;
61003;SDS011;46889;37.310;13.582;2022-10-17T11:02:48;9.02;;;5.25;;
61003;SDS011;46889;37.310;13.582;2022-10-17T11:05:47;10.07;;;6.03;;
61003;SDS011;46889;37.310;13.582;2022-10-17T11:08:27;10.10;;;5.82;;
61003;SDS011;46889;37.310;13.582;2022-10-17T11:11:05;9.45;;;5.20;;
61003;SDS011;46889;37.310;13.582;2022-10-17T11:14:14;10.32;;;5.45;;
61003;SDS011;46889;37.310;13.582;2022-10-17T11:19:37;8.93;;;4.93;;
61003;SDS011;46889;37.310;13.582;2022-10-17T11:22:15;8.07;;;5.18;;
61003;SDS011;46889;37.310;13.582;2022-10-17T11:25:33;9.50;;;4.97;;
61003;SDS011;46889;37.310;13.582;2022-10-17T11:28:01;7.90;;;4.95;;
61003;SDS011;46889;37.310;13.582;2022-10-17T11:30:41;9.55;;;5.20;;
61003;SDS011;46889;37.310;13.582;2022-10-17T11:33:09;8.05;;;5.00;;
61003;SDS011;46889;37.310;13.582;2022-10-17T11:35:41;10.98;;;5.70;;
61003;SDS011;46889;37.310;13.582;2022-10-17T11:38:45;10.32;;;5.57;;
61003;SDS011;46889;37.310;13.582;2022-10-17T11:41:07;9.25;;;5.53;;
61003;SDS011;46889;37.310;13.582;2022-10-17T11:46:22;9.00;;;5.50;;
61003;SDS011;46889;37.310;13.582;2022-10-17T11:49:10;8.43;;;5.10;;
61003;SDS011;46889;37.310;13.582;2022-10-17T11:51:50;7.53;;;5.00;;
61003;SDS011;46889;37.310;13.582;2022-10-17T11:54:42;8.85;;;5.30;;
61003;SDS011;46889;37.310;13.582;2022-10-17T11:57:19;9.55;;;5.15;;
61003;SDS011;46889;37.310;13.582;2022-10-17T12:00:05;10.45;;;4.80;;
61003;SDS011;46889;37.310;13.582;2022-10-17T12:05:27;12.52;;;5.32;;
61003;SDS011;46889;37.310;13.582;2022-10-17T12:11:10;9.27;;;5.70;;
61003;SDS011;46889;37.310;13.582;2022-10-17T12:18:48;7.65;;;4.95;;
61003;SDS011;46889;37.310;13.582;2022-10-17T12:21:52;9.20;;;5.13;;
61003;SDS011;46889;37.310;13.582;2022-10-17T12:30:00;7.88;;;4.80;;
61003;SDS011;46889;37.310;13.582;2022-10-17T12:32:52;9.63;;;5.05;;
61003;SDS011;46889;37.310;13.582;2022-10-17T12:35:21;8.07;;;5.68;;
61003;SDS011;46889;37.310;13.582;2022-10-17T12:43:00;9.90;;;6.05;;
61003;SDS011;46889;37.310;13.582;2022-10-17T12:45:49;8.68;;;5.38;;
61003;SDS011;46889;37.310;13.582;2022-10-17T12:59:07;10.45;;;5.57;;
61003;SDS011;46889;37.310;13.582;2022-10-17T13:01:42;10.55;;;5.38;;
61003;SDS011;46889;37.310;13.582;2022-10-17T13:04:12;10.88;;;5.65;;
61003;SDS011;46889;37.310;13.582;2022-10-17T13:12:00;9.77;;;5.38;;
61003;SDS011;46889;37.310;13.582;2022-10-17T13:14:28;13.25;;;5.88;;
61003;SDS011;46889;37.310;13.582;2022-10-17T13:16:59;13.70;;;6.47;;
61003;SDS011;46889;37.310;13.582;2022-10-17T13:19:38;10.88;;;6.18;;
61003;SDS011;46889;37.310;13.582;2022-10-17T13:22:17;8.95;;;5.60;;
61003;SDS011;46889;37.310;13.582;2022-10-17T13:24:48;10.00;;;5.72;;
61003;SDS011;46889;37.310;13.582;2022-10-17T13:27:24;11.85;;;6.18;;
61003;SDS011;46889;37.310;13.582;2022-10-17T13:29:56;9.60;;;6.10;;
61003;SDS011;46889;37.310;13.582;2022-10-17T13:32:25;13.73;;;6.25;;
61003;SDS011;46889;37.310;13.582;2022-10-17T13:37:40;10.65;;;5.63;;
61003;SDS011;46889;37.310;13.582;2022-10-17T13:40:19;12.23;;;6.75;;
61003;SDS011;46889;37.310;13.582;2022-10-17T13:43:11;9.65;;;6.10;;
61003;SDS011;46889;37.310;13.582;2022-10-17T13:45:59;13.10;;;6.93;;
61003;SDS011;46889;37.310;13.582;2022-10-17T13:48:44;11.43;;;7.25;;
61003;SDS011;46889;37.310;13.582;2022-10-17T13:51:10;11.90;;;6.78;;
61003;SDS011;46889;37.310;13.582;2022-10-17T13:53:38;11.57;;;6.65;;
61003;SDS011;46889;37.310;13.582;2022-10-17T13:56:17;11.35;;;7.57;;
61003;SDS011;46889;37.310;13.582;2022-10-17T13:58:47;12.10;;;6.88;;
61003;SDS011;46889;37.310;13.582;2022-10-17T14:01:14;10.38;;;6.15;;
61003;SDS011;46889;37.310;13.582;2022-10-17T14:03:45;9.20;;;6.35;;
61003;SDS011;46889;37.310;13.582;2022-10-17T14:06:21;10.88;;;6.50;;
61003;SDS011;46889;37.310;13.582;2022-10-17T14:09:06;10.70;;;6.82;;
61003;SDS011;46889;37.310;13.582;2022-10-17T14:11:42;13.48;;;7.05;;
61003;SDS011;46889;37.310;13.582;2022-10-17T14:14:51;11.43;;;7.10;;
61003;SDS011;46889;37.310;13.582;2022-10-17T14:19:55;9.45;;;6.90;;
61003;SDS011;46889;37.310;13.582;2022-10-17T14:22:28;13.57;;;8.30;;
61003;SDS011;46889;37.310;13.582;2022-10-17T14:24:58;14.73;;;7.78;;
61003;SDS011;46889;37.310;13.582;2022-10-17T14:29:54;11.80;;;8.63;;
61003;SDS011;46889;37.310;13.582;2022-10-17T14:32:24;11.43;;;7.88;;
61003;SDS011;46889;37.310;13.582;2022-10-17T14:37:44;10.27;;;7.70;;
61003;SDS011;46889;37.310;13.582;2022-10-17T14:40:14;12.93;;;7.43;;
61003;SDS011;46889;37.310;13.582;2022-10-17T14:42:43;13.80;;;7.13;;
61003;SDS011;46889;37.310;13.582;2022-10-17T14:45:12;13.27;;;6.95;;
61003;SDS011;46889;37.310;13.582;2022-10-17T14:47:43;15.05;;;7.25;;
61003;SDS011;46889;37.310;13.582;2022-10-17T14:52:40;12.32;;;6.80;;
61003;SDS011;46889;37.310;13.582;2022-10-17T14:55:23;11.32;;;7.20;;
61003;SDS011;46889;37.310;13.582;2022-10-17T14:57:51;9.50;;;6.93;;
61003;SDS011;46889;37.310;13.582;2022-10-17T15:00:18;12.80;;;7.10;;
61003;SDS011;46889;37.310;13.582;2022-10-17T15:02:47;10.60;;;7.35;;
61003;SDS011;46889;37.310;13.582;2022-10-17T15:05:15;13.57;;;8.27;;
61003;SDS011;46889;37.310;13.582;2022-10-17T15:07:42;11.90;;;7.38;;
61003;SDS011;46889;37.310;13.582;2022-10-17T15:10:16;13.13;;;7.20;;
61003;SDS011;46889;37.310;13.582;2022-10-17T15:12:50;16.33;;;7.68;;
61003;SDS011;46889;37.310;13.582;2022-10-17T15:15:17;10.57;;;7.57;;
61003;SDS011;46889;37.310;13.582;2022-10-17T15:17:46;10.18;;;7.80;;
61003;SDS011;46889;37.310;13.582;2022-10-17T15:20:13;12.90;;;7.93;;
61003;SDS011;46889;37.310;13.582;2022-10-17T15:22:42;13.52;;;7.45;;
61003;SDS011;46889;37.310;13.582;2022-10-17T15:25:08;12.88;;;7.85;;
61003;SDS011;46889;37.310;13.582;2022-10-17T15:27:34;12.93;;;7.95;;
61003;SDS011;46889;37.310;13.582;2022-10-17T15:30:00;10.32;;;7.45;;
61003;SDS011;46889;37.310;13.582;2022-10-17T15:32:27;10.75;;;7.05;;
61003;SDS011;46889;37.310;13.582;2022-10-17T15:34:53;12.55;;;7.80;;
61003;SDS011;46889;37.310;13.582;2022-10-17T15:37:20;15.55;;;9.32;;
61003;SDS011;46889;37.310;13.582;2022-10-17T15:39:52;13.27;;;7.63;;
61003;SDS011;46889;37.310;13.582;2022-10-17T15:42:20;13.35;;;8.52;;
61003;SDS011;46889;37.310;13.582;2022-10-17T15:44:47;13.15;;;8.50;;
61003;SDS011;46889;37.310;13.582;2022-10-17T15:47:24;12.55;;;8.70;;
61003;SDS011;46889;37.310;13.582;2022-10-17T15:49:53;10.90;;;8.93;;
61003;SDS011;46889;37.310;13.582;2022-10-17T15:52:20;13.20;;;8.68;;
61003;SDS011;46889;37.310;13.582;2022-10-17T15:54:46;19.25;;;10.02;;
61003;SDS011;46889;37.310;13.582;2022-10-17T15:57:17;23.50;;;16.25;;
61003;SDS011;46889;37.310;13.582;2022-10-17T15:59:53;28.13;;;16.35;;
61003;SDS011;46889;37.310;13.582;2022-10-17T16:02:22;27.55;;;19.00;;
61003;SDS011;46889;37.310;13.582;2022-10-17T16:07:16;16.23;;;12.02;;
61003;SDS011;46889;37.310;13.582;2022-10-17T16:09:43;15.57;;;10.30;;
61003;SDS011;46889;37.310;13.582;2022-10-17T16:12:15;16.95;;;10.90;;
61003;SDS011;46889;37.310;13.582;2022-10-17T16:14:43;13.48;;;9.48;;
61003;SDS011;46889;37.310;13.582;2022-10-17T16:17:13;18.48;;;11.07;;
61003;SDS011;46889;37.310;13.582;2022-10-17T16:19:46;14.80;;;10.07;;
61003;SDS011;46889;37.310;13.582;2022-10-17T16:22:45;18.23;;;10.43;;
61003;SDS011;46889;37.310;13.582;2022-10-17T16:25:09;14.32;;;10.38;;
61003;SDS011;46889;37.310;13.582;2022-10-17T16:27:44;17.73;;;12.00;;
61003;SDS011;46889;37.310;13.582;2022-10-17T16:30:11;15.23;;;10.55;;
61003;SDS011;46889;37.310;13.582;2022-10-17T16:32:38;16.17;;;11.40;;
61003;SDS011;46889;37.310;13.582;2022-10-17T16:35:04;14.80;;;9.93;;
61003;SDS011;46889;37.310;13.582;2022-10-17T16:37:31;13.52;;;9.98;;
61003;SDS011;46889;37.310;13.582;2022-10-17T16:39:58;16.13;;;10.68;;
61003;SDS011;46889;37.310;13.582;2022-10-17T16:42:25;13.00;;;10.43;;
61003;SDS011;46889;37.310;13.582;2022-10-17T16:44:51;16.52;;;10.50;;
61003;SDS011;46889;37.310;13.582;2022-10-17T16:47:17;17.52;;;12.85;;
61003;SDS011;46889;37.310;13.582;2022-10-17T16:49:44;18.63;;;11.55;;
61003;SDS011;46889;37.310;13.582;2022-10-17T16:52:10;16.83;;;11.52;;
61003;SDS011;46889;37.310;13.582;2022-10-17T16:54:37;23.70;;;12.32;;
61003;SDS011;46889;37.310;13.582;2022-10-17T16:57:04;18.80;;;12.38;;
61003;SDS011;46889;37.310;13.582;2022-10-17T16:59:30;17.00;;;12.25;;